Greeley, CO

2:52 PM MST on December 15, 2017 (GMT -0700)
Greeley-Weld County

Weather History for KGXY - May, 2014

Change the Weather History Date:

Monday, May 12, 2014

  Actual Average Record
Temperature  
Mean Temperature 38 °F -  
Max Temperature 44 °F - 87 °F (1984)
Min Temperature 32 °F - 25 °F (1983)
Degree Days  
Heating Degree Days 27    
Month to date heating degree days  
Cooling Degree Days 0    
Month to date cooling degree days  
Moisture  
Dew Point 27 °F    
Average Humidity 66    
Maximum Humidity 87    
Minimum Humidity 46    
Precipitation  
Precipitation 0.05 in - 1.54 in (2004)
Sea Level Pressure  
Sea Level Pressure 30.26 in    
Wind  
Wind Speed 14 mph (North)    
Max Wind Speed 28 mph    
Max Gust Speed 36 mph    
Visibility 8 miles    
Events      
T = Trace of Precipitation, MM = Missing Value Source: NWS Daily Summary

Daily Weather History Graph

Daily Weather History Graph

Search for Another Location

Airport or City:

Trip Planner

Search our weather history database for the weather conditions in past years. The results will help you decide how hot, cold, wet, or windy it might be!

Date:

Astronomy

May. 12, 2014 Rise Set
Actual Time 5:45 AM MDT 8:05 PM MDT
Civil Twilight 5:14 AM MDT 8:36 PM MDT
Nautical Twilight 4:36 AM MDT 9:13 PM MDT
Astronomical Twilight 3:54 AM MDT 9:55 PM MDT
Moon 6:05 PM MDT (5/12) 4:26 AM MDT (5/12)
Length of Visible Light 15h 21m
Length of Day
14h 20m
Waxing Gibbous, 95% of the Moon is Illuminated
May 12
Waxing Gibbous
May 14
Full
May 21
Last Quarter
May 28
New
Jun 5
First Quarter

Hourly Weather History & Observations

Time (MDT) Temp. Windchill Dew Point Humidity Pressure Visibility Wind Dir Wind Speed Gust Speed Precip Events Conditions
12:15 AM 35.6 °F 27.5 °F 28.4 °F 75% 30.10 in 10.0 mi NW 11.5 mph - N/A   Overcast
12:35 AM 35.6 °F 26.6 °F 28.4 °F 75% 30.10 in 10.0 mi North 13.8 mph 18.4 mph N/A   Overcast
12:55 AM 35.6 °F 25.2 °F 28.4 °F 75% 30.11 in 10.0 mi North 18.4 mph 21.9 mph N/A   Overcast
1:15 AM 35.6 °F 27.5 °F 28.4 °F 75% 30.11 in 10.0 mi North 11.5 mph - N/A   Overcast
1:35 AM 35.6 °F 27.1 °F 28.4 °F 75% 30.11 in 10.0 mi North 12.7 mph 18.4 mph N/A   Overcast
1:55 AM 35.6 °F 28.0 °F 28.4 °F 75% 30.11 in 10.0 mi NNW 10.4 mph - N/A   Overcast
2:15 AM 33.8 °F 27.7 °F 26.6 °F 75% 30.13 in 4.0 mi NNW 6.9 mph 18.4 mph N/A   Overcast
2:35 AM 33.8 °F 25.8 °F 26.6 °F 75% 30.13 in 2.5 mi North 10.4 mph - 0.01 in   Overcast
2:55 AM 33.8 °F 25.8 °F 26.6 °F 75% 30.13 in 2.5 mi North 10.4 mph - 0.02 in   Overcast
3:15 AM 33.8 °F 26.4 °F 28.4 °F 81% 30.13 in 1.2 mi NNW 9.2 mph - N/A   Overcast
3:35 AM 33.8 °F 25.8 °F 26.6 °F 75% 30.14 in 2.0 mi NW 10.4 mph - 0.01 in   Overcast
3:55 AM 33.8 °F 27.7 °F 28.4 °F 81% 30.14 in 2.5 mi NW 6.9 mph - 0.01 in   Overcast
4:15 AM 33.8 °F 27.0 °F 28.4 °F 81% 30.15 in 2.5 mi NW 8.1 mph - 0.01 in   Overcast
4:35 AM 33.8 °F 23.5 °F 28.4 °F 81% 30.16 in 3.0 mi North 16.1 mph - 0.01 in   Overcast
4:55 AM 33.8 °F 24.8 °F 28.4 °F 81% 30.17 in 7.0 mi North 12.7 mph - 0.01 in   Overcast
5:15 AM 33.8 °F 27.0 °F 28.4 °F 81% 30.17 in 6.0 mi North 8.1 mph - N/A   Overcast
5:35 AM 33.8 °F 27.0 °F 28.4 °F 81% 30.18 in 1.8 mi NNW 8.1 mph - N/A   Overcast
5:55 AM 33.8 °F 24.3 °F 28.4 °F 81% 30.19 in 2.0 mi NNW 13.8 mph - N/A   Overcast
6:15 AM 33.8 °F 26.4 °F 28.4 °F 81% 30.21 in 1.5 mi NNE 9.2 mph - 0.01 in   Overcast
6:35 AM 32.0 °F 23.0 °F 26.6 °F 80% 30.21 in 2.5 mi North 11.5 mph - 0.01 in   Overcast
6:55 AM 32.0 °F 22.1 °F 28.4 °F 87% 30.22 in 6.0 mi North 13.8 mph 18.4 mph 0.01 in   Overcast
7:15 AM 33.8 °F 24.8 °F 28.4 °F 81% 30.23 in 4.0 mi North 12.7 mph - N/A   Overcast
7:35 AM 33.8 °F 25.3 °F 28.4 °F 81% 30.23 in 10.0 mi North 11.5 mph - N/A   Overcast
8:15 AM 33.8 °F 22.8 °F 30.2 °F 87% 30.24 in 10.0 mi North 18.4 mph 27.6 mph N/A   Mostly Cloudy
8:35 AM 33.8 °F 23.5 °F 30.2 °F 87% 30.26 in 10.0 mi North 16.1 mph - N/A   Scattered Clouds
8:55 AM 35.6 °F 26.2 °F 32.0 °F 87% 30.26 in 10.0 mi North 15.0 mph - N/A   Overcast
9:15 AM 35.6 °F 25.2 °F 30.2 °F 81% 30.27 in 10.0 mi North 18.4 mph 24.2 mph N/A   Mostly Cloudy
9:35 AM 35.6 °F 24.2 °F 30.2 °F 81% 30.28 in 10.0 mi North 21.9 mph 26.5 mph N/A   Overcast
9:55 AM 35.6 °F 24.5 °F 30.2 °F 81% 30.29 in 10.0 mi North 20.7 mph 25.3 mph N/A   Overcast
10:15 AM 37.4 °F 27.5 °F 28.4 °F 70% 30.29 in 10.0 mi North 18.4 mph 25.3 mph N/A   Overcast
10:35 AM 39.2 °F 29.6 °F 26.6 °F 61% 30.30 in 10.0 mi North 19.6 mph 27.6 mph N/A   Overcast
10:55 AM 39.2 °F 29.0 °F 26.6 °F 61% 30.31 in 10.0 mi North 21.9 mph 28.8 mph N/A   Overcast
11:15 AM 39.2 °F 28.0 °F 26.6 °F 61% 30.31 in 10.0 mi North 26.5 mph 31.1 mph N/A   Overcast
11:35 AM 39.2 °F 29.0 °F 26.6 °F 61% 30.31 in 10.0 mi North 21.9 mph 32.2 mph N/A   Overcast
11:55 AM 39.2 °F 29.3 °F 26.6 °F 61% 30.31 in 10.0 mi North 20.7 mph 26.5 mph N/A   Overcast
12:15 PM 39.2 °F 28.3 °F 26.6 °F 61% 30.31 in 10.0 mi North 25.3 mph 31.1 mph N/A   Overcast
12:35 PM 42.8 °F 33.5 °F 26.6 °F 53% 30.30 in 10.0 mi North 23.0 mph 29.9 mph N/A   Overcast
12:55 PM 42.8 °F 33.8 °F 26.6 °F 53% 30.30 in 10.0 mi North 21.9 mph 33.4 mph N/A   Mostly Cloudy
1:35 PM 44.6 °F 35.1 °F 24.8 °F 46% 30.30 in 10.0 mi North 27.6 mph 35.7 mph N/A   Mostly Cloudy
1:55 PM 44.6 °F 36.1 °F 24.8 °F 46% 30.30 in 10.0 mi North 21.9 mph 33.4 mph N/A   Scattered Clouds
2:15 PM 42.8 °F 34.3 °F 24.8 °F 49% 30.30 in 10.0 mi North 19.6 mph 27.6 mph N/A   Mostly Cloudy
2:35 PM 44.6 °F 35.9 °F 26.6 °F 49% 30.30 in 10.0 mi North 23.0 mph 27.6 mph N/A   Overcast
2:55 PM 44.6 °F 35.9 °F 26.6 °F 49% 30.30 in 10.0 mi North 23.0 mph 27.6 mph N/A   Mostly Cloudy
3:15 PM 44.6 °F 36.9 °F 26.6 °F 49% 30.30 in 10.0 mi North 18.4 mph 27.6 mph N/A   Mostly Cloudy
3:35 PM 44.6 °F 35.7 °F 26.6 °F 49% 30.29 in 10.0 mi North 24.2 mph 27.6 mph N/A   Mostly Cloudy
3:55 PM 42.8 °F 34.5 °F 26.6 °F 53% 30.30 in 10.0 mi North 18.4 mph 28.8 mph N/A   Mostly Cloudy
4:15 PM 42.8 °F 34.0 °F 26.6 °F 53% 30.30 in 10.0 mi North 20.7 mph 26.5 mph N/A   Mostly Cloudy
4:35 PM 44.6 °F 35.3 °F 26.6 °F 49% 30.30 in 10.0 mi North 26.5 mph 29.9 mph N/A   Overcast
4:55 PM 44.6 °F 35.9 °F 24.8 °F 46% 30.30 in 10.0 mi North 23.0 mph 27.6 mph N/A   Mostly Cloudy
5:15 PM 44.6 °F 36.1 °F 26.6 °F 49% 30.30 in 10.0 mi North 21.9 mph 26.5 mph N/A   Mostly Cloudy
5:35 PM 42.8 °F 33.5 °F 24.8 °F 49% 30.30 in 10.0 mi North 23.0 mph - N/A   Partly Cloudy
5:55 PM 42.8 °F 34.3 °F 23.0 °F 46% 30.30 in 10.0 mi North 19.6 mph 28.8 mph N/A   Partly Cloudy
6:15 PM 42.8 °F 33.8 °F 24.8 °F 49% 30.30 in 10.0 mi North 21.9 mph 27.6 mph N/A   Mostly Cloudy
6:35 PM 42.8 °F 34.8 °F 23.0 °F 46% 30.30 in 10.0 mi North 17.3 mph 26.5 mph N/A   Scattered Clouds
6:55 PM 41.0 °F 32.8 °F 23.0 °F 49% 30.30 in 10.0 mi North 16.1 mph 26.5 mph N/A   Clear
7:15 PM 41.0 °F 32.5 °F 23.0 °F 49% 30.31 in 10.0 mi North 17.3 mph 23.0 mph N/A   Clear
7:35 PM 39.2 °F 31.2 °F 23.0 °F 52% 30.31 in 10.0 mi North 13.8 mph - N/A   Clear
7:55 PM 39.2 °F 31.2 °F 24.8 °F 56% 30.32 in 10.0 mi NNW 13.8 mph - N/A   Clear
8:15 PM 37.4 °F 30.3 °F 24.8 °F 60% 30.32 in 10.0 mi NNW 10.4 mph - N/A   Clear
8:35 PM 37.4 °F 30.3 °F 24.8 °F 60% 30.33 in 10.0 mi NNW 10.4 mph - N/A   Clear
8:55 PM 35.6 °F 29.2 °F 24.8 °F 65% 30.34 in 10.0 mi NW 8.1 mph - N/A   Clear
9:15 PM 33.8 °F 27.7 °F 24.8 °F 70% 30.36 in 10.0 mi WNW 6.9 mph - N/A   Clear
9:35 PM 35.6 °F 29.2 °F 26.6 °F 70% 30.36 in 10.0 mi WNW 8.1 mph - N/A   Clear
9:55 PM 33.8 °F 27.0 °F 24.8 °F 70% 30.37 in 10.0 mi NW 8.1 mph - N/A   Clear
10:15 PM 33.8 °F 27.7 °F 24.8 °F 70% 30.38 in 10.0 mi WNW 6.9 mph - N/A   Clear
10:35 PM 33.8 °F 26.4 °F 24.8 °F 70% 30.39 in 10.0 mi NW 9.2 mph - N/A   Clear
10:55 PM 33.8 °F 25.8 °F 24.8 °F 70% 30.39 in 10.0 mi NW 10.4 mph - N/A   Clear
11:15 PM 33.8 °F 27.7 °F 24.8 °F 70% 30.40 in 10.0 mi NW 6.9 mph - N/A   Clear
11:35 PM 32.0 °F 26.4 °F 24.8 °F 75% 30.40 in 10.0 mi NNW 5.8 mph - N/A   Clear